Terminal Aerodrome Forecast
Issued by NWS Salt Lake City, UT

Home | Current Version | Previous Version | Text Only | Print | Product List | Glossary On
Versions: 1 2 3 4 5 6 7 8 9 10 11 12 13 14 15 16 17
000
FTUS45 KSLC 210545
TAFCDC
TAF
KCDC 210545Z 2106/2206 36006KT P6SM -SN SCT020 SCT060 BKN090
     FM211000 03008KT P6SM SCT020 BKN090
     FM211500 01007KT P6SM SCT040
     FM220200 VRB04KT P6SM FEW040=

USA.gov is the U.S. government's official web portal to all federal, state and local government web resources and services.